createdAt,value
2022-09-21T00:01:31.135Z,12.30
2022-09-21T00:03:59.475Z,12.30
2022-09-21T00:06:27.239Z,12.30
2022-09-21T00:08:54.718Z,12.20
2022-09-21T00:11:25.122Z,12.20
2022-09-21T00:13:53.303Z,12.20
2022-09-21T00:16:20.746Z,12.20
2022-09-21T00:18:48.641Z,12.20
2022-09-21T00:21:15.971Z,12.20
2022-09-21T00:23:43.235Z,12.20
2022-09-21T00:26:11.714Z,12.20
2022-09-21T00:28:38.962Z,12.20
2022-09-21T00:31:07.185Z,12.20
2022-09-21T00:33:34.580Z,12.30
2022-09-21T00:36:05.868Z,12.30
2022-09-21T00:38:32.928Z,12.30
2022-09-21T00:40:59.883Z,12.20
2022-09-21T00:43:27.474Z,12.20
2022-09-21T00:46:01.954Z,12.30
2022-09-21T00:48:29.388Z,12.20
2022-09-21T00:50:58.981Z,12.20
2022-09-21T00:53:26.504Z,12.20
2022-09-21T00:55:56.060Z,12.20
2022-09-21T00:58:27.841Z,12.20
2022-09-21T01:00:55.361Z,12.20
2022-09-21T01:03:22.604Z,12.10
2022-09-21T01:05:50.397Z,12.10
2022-09-21T01:08:18.377Z,12.10
2022-09-21T01:10:48.523Z,12.10
2022-09-21T01:13:40.010Z,12.10
2022-09-21T01:16:14.042Z,12.00
2022-09-21T01:18:51.853Z,12.00
2022-09-21T01:21:21.983Z,11.90
2022-09-21T01:23:57.253Z,11.80
2022-09-21T01:26:30.269Z,11.80
2022-09-21T01:29:00.314Z,11.80
2022-09-21T01:31:32.197Z,11.70
2022-09-21T01:34:02.038Z,11.70
2022-09-21T01:36:30.951Z,11.70
2022-09-21T01:39:02.073Z,11.60
2022-09-21T01:41:30.488Z,11.60
2022-09-21T01:43:59.492Z,11.60
2022-09-21T01:46:28.492Z,11.50
2022-09-21T01:48:58.638Z,11.50
2022-09-21T01:51:27.624Z,11.40
2022-09-21T01:53:56.949Z,11.40
2022-09-21T01:56:31.775Z,11.40
2022-09-21T01:59:07.244Z,11.40
2022-09-21T02:01:36.242Z,11.30
2022-09-21T02:04:08.212Z,11.20
2022-09-21T02:06:35.340Z,11.20
2022-09-21T02:09:02.224Z,11.20
2022-09-21T02:11:29.302Z,11.20
2022-09-21T02:13:56.495Z,11.10
2022-09-21T02:16:40.253Z,11.00
2022-09-21T02:19:15.182Z,11.00
2022-09-21T02:22:08.650Z,11.00
2022-09-21T02:24:47.382Z,10.90
2022-09-21T02:27:17.397Z,10.90
2022-09-21T02:29:51.676Z,10.90
2022-09-21T02:32:33.527Z,10.90
2022-09-21T02:35:00.484Z,10.90
2022-09-21T02:37:31.361Z,10.90
2022-09-21T02:39:58.294Z,10.90
2022-09-21T02:42:28.245Z,11.00
2022-09-21T02:45:01.419Z,10.90
2022-09-21T02:47:31.868Z,10.90
2022-09-21T02:50:01.845Z,10.90
2022-09-21T02:52:30.603Z,10.90
2022-09-21T02:54:57.579Z,10.90
2022-09-21T02:57:25.507Z,10.90
2022-09-21T02:59:52.526Z,10.90
2022-09-21T03:02:19.578Z,10.90
2022-09-21T03:04:47.878Z,10.90
2022-09-21T03:07:18.177Z,10.90
2022-09-21T03:09:45.258Z,10.80
2022-09-21T03:12:12.173Z,10.80
2022-09-21T03:14:39.230Z,10.70
2022-09-21T03:17:06.178Z,10.70
2022-09-21T03:19:33.154Z,10.70
2022-09-21T03:22:00.280Z,10.70
2022-09-21T03:24:45.857Z,10.70
2022-09-21T03:27:14.322Z,10.60
2022-09-21T03:29:41.256Z,10.60
2022-09-21T03:32:08.246Z,10.50
2022-09-21T03:34:35.157Z,10.50
2022-09-21T03:37:02.651Z,10.50
2022-09-21T03:39:29.663Z,10.50
2022-09-21T03:41:57.138Z,10.50
2022-09-21T03:44:25.180Z,10.50
2022-09-21T03:46:52.539Z,10.50
2022-09-21T03:49:19.653Z,10.50
2022-09-21T03:51:46.676Z,10.50
2022-09-21T03:54:13.609Z,10.50
2022-09-21T03:56:40.611Z,10.50
2022-09-21T03:59:11.788Z,10.50
2022-09-21T04:01:40.997Z,10.50
2022-09-21T04:04:08.058Z,10.50
2022-09-21T04:06:35.289Z,10.50
2022-09-21T04:09:02.711Z,10.50
2022-09-21T04:11:30.190Z,10.50
2022-09-21T04:13:57.450Z,10.50
2022-09-21T04:16:24.765Z,10.50
2022-09-21T04:18:51.753Z,10.50
2022-09-21T04:21:19.359Z,10.40
2022-09-21T04:23:46.541Z,10.40
2022-09-21T04:26:20.665Z,10.30
2022-09-21T04:28:47.677Z,10.20
2022-09-21T04:31:14.613Z,10.30
2022-09-21T04:33:41.818Z,10.30
2022-09-21T04:36:08.686Z,10.30
2022-09-21T04:38:35.880Z,10.30
2022-09-21T04:41:03.582Z,10.30
2022-09-21T04:43:30.581Z,10.30
2022-09-21T04:45:57.608Z,10.30
2022-09-21T04:48:24.872Z,10.20
2022-09-21T04:50:51.805Z,10.20
2022-09-21T04:53:18.785Z,10.20
2022-09-21T04:55:46.557Z,10.20
2022-09-21T04:58:13.524Z,10.20
2022-09-21T05:00:40.432Z,10.20
2022-09-21T05:03:07.442Z,10.20
2022-09-21T05:05:34.362Z,10.20
2022-09-21T05:08:01.411Z,10.20
2022-09-21T05:10:28.428Z,10.10
2022-09-21T05:12:55.519Z,10.10
2022-09-21T05:15:22.490Z,10.10
2022-09-21T05:17:49.465Z,10.10
2022-09-21T05:20:16.444Z,10.00
2022-09-21T05:22:43.377Z,10.00
2022-09-21T05:25:10.529Z,10.00
2022-09-21T05:27:37.610Z,10.00
2022-09-21T05:30:05.256Z,10.00
2022-09-21T05:32:35.227Z,10.00
2022-09-21T05:35:20.971Z,10.00
2022-09-21T05:38:11.226Z,10.00
2022-09-21T05:40:38.394Z,10.00
2022-09-21T05:43:05.504Z,10.00
2022-09-21T05:45:32.799Z,10.00
2022-09-21T05:48:07.030Z,10.00
2022-09-21T05:50:37.143Z,10.10
2022-09-21T05:53:10.226Z,10.00
2022-09-21T05:55:57.475Z,10.00
2022-09-21T05:58:27.456Z,10.00
2022-09-21T06:01:03.716Z,10.00
2022-09-21T06:03:31.585Z,10.00
2022-09-21T06:05:59.481Z,10.00
2022-09-21T06:08:26.558Z,10.00
2022-09-21T06:10:53.787Z,10.00
2022-09-21T06:13:21.007Z,10.00
2022-09-21T06:15:48.076Z,10.00
2022-09-21T06:18:18.040Z,10.00
2022-09-21T06:20:45.664Z,9.90
2022-09-21T06:23:13.630Z,10.00
2022-09-21T06:25:40.939Z,9.90
2022-09-21T06:28:09.061Z,10.00
2022-09-21T06:30:37.025Z,10.00
2022-09-21T06:33:04.938Z,10.10
2022-09-21T06:35:32.652Z,10.10
2022-09-21T06:38:03.787Z,10.00
2022-09-21T06:40:31.928Z,10.10
2022-09-21T06:42:59.736Z,10.10
2022-09-21T06:45:27.483Z,10.10
2022-09-21T06:47:54.742Z,10.20
2022-09-21T06:50:22.267Z,10.20
2022-09-21T06:52:49.252Z,10.20
2022-09-21T06:55:17.003Z,10.30
2022-09-21T06:57:44.049Z,10.40
2022-09-21T07:00:13.045Z,10.50
2022-09-21T07:02:46.033Z,10.60
2022-09-21T07:05:13.317Z,10.70
2022-09-21T07:07:40.547Z,10.80
2022-09-21T07:10:14.333Z,10.80
2022-09-21T07:12:42.098Z,11.00
2022-09-21T07:15:10.480Z,11.10
2022-09-21T07:17:38.738Z,11.30
2022-09-21T07:20:06.704Z,11.40
2022-09-21T07:22:34.087Z,11.60
2022-09-21T07:25:01.492Z,11.70
2022-09-21T07:27:29.447Z,11.80
2022-09-21T07:29:56.418Z,12.00
2022-09-21T07:32:23.988Z,12.20
2022-09-21T07:34:50.992Z,12.40
2022-09-21T07:37:18.105Z,12.50
2022-09-21T07:39:45.172Z,12.70
2022-09-21T07:42:12.331Z,12.90
2022-09-21T07:44:39.279Z,13.00
2022-09-21T07:47:06.427Z,13.20
2022-09-21T07:49:33.346Z,13.40
2022-09-21T07:52:04.385Z,13.60
2022-09-21T07:54:34.531Z,13.70
2022-09-21T07:57:20.016Z,13.90
2022-09-21T07:59:49.551Z,14.00
2022-09-21T08:02:16.590Z,14.20
2022-09-21T08:04:43.612Z,14.40
2022-09-21T08:07:10.861Z,14.50
2022-09-21T08:09:38.461Z,14.70
2022-09-21T08:12:05.489Z,14.80
2022-09-21T08:14:32.831Z,15.00
2022-09-21T08:16:59.827Z,15.10
2022-09-21T08:19:26.882Z,15.20
2022-09-21T08:21:57.550Z,15.30
2022-09-21T08:24:26.941Z,15.40
2022-09-21T08:26:55.972Z,15.50
2022-09-21T08:29:26.706Z,15.60
2022-09-21T08:31:53.881Z,15.80
2022-09-21T08:34:20.922Z,15.90
2022-09-21T08:36:51.745Z,16.10
2022-09-21T08:39:22.821Z,16.20
2022-09-21T08:41:55.744Z,16.40
2022-09-21T08:44:38.192Z,16.50
2022-09-21T08:47:08.484Z,16.60
2022-09-21T08:49:36.668Z,16.70
2022-09-21T08:52:05.729Z,16.80
2022-09-21T08:54:51.298Z,16.90
2022-09-21T08:57:19.041Z,17.00
2022-09-21T08:59:49.734Z,17.10
2022-09-21T09:02:35.756Z,17.20
2022-09-21T09:05:22.210Z,17.30
2022-09-21T09:07:49.972Z,17.50
2022-09-21T09:10:26.362Z,17.50
2022-09-21T09:13:08.777Z,17.70
2022-09-21T09:15:36.033Z,17.80
2022-09-21T09:18:09.550Z,17.90
2022-09-21T09:20:39.495Z,17.90
2022-09-21T09:23:12.941Z,18.10
2022-09-21T09:25:44.824Z,18.10
2022-09-21T09:28:30.568Z,18.10
2022-09-21T09:31:00.263Z,18.10
2022-09-21T09:33:30.417Z,18.10
2022-09-21T09:36:03.079Z,18.10
2022-09-21T09:38:45.584Z,18.20
2022-09-21T09:41:25.669Z,18.10
2022-09-21T09:44:12.970Z,18.00
2022-09-21T09:47:00.037Z,18.10
2022-09-21T09:49:47.545Z,18.20
2022-09-21T09:52:15.582Z,18.10
2022-09-21T09:54:43.079Z,18.20
2022-09-21T09:57:11.272Z,18.30
2022-09-21T09:59:53.517Z,18.40
2022-09-21T10:02:25.822Z,18.40
2022-09-21T10:05:00.327Z,18.40
2022-09-21T10:07:47.639Z,18.40
2022-09-21T10:10:17.656Z,18.50
2022-09-21T10:12:46.508Z,18.20
2022-09-21T10:15:13.696Z,18.10
2022-09-21T10:17:41.818Z,18.10
2022-09-21T10:20:15.640Z,18.00
2022-09-21T10:22:45.483Z,18.10
2022-09-21T10:25:16.849Z,18.00
2022-09-21T10:27:45.295Z,18.00
2022-09-21T10:30:30.531Z,17.90
2022-09-21T10:32:58.816Z,18.00
2022-09-21T10:35:26.277Z,18.20
2022-09-21T10:38:10.224Z,18.40
2022-09-21T10:40:38.306Z,18.60
2022-09-21T10:43:05.477Z,18.80
2022-09-21T10:45:34.963Z,18.90
2022-09-21T10:48:14.574Z,18.90
2022-09-21T10:50:42.716Z,18.80
2022-09-21T10:53:09.649Z,18.90
2022-09-21T10:55:52.572Z,18.90
2022-09-21T10:58:25.648Z,19.10
2022-09-21T11:00:53.283Z,19.10
2022-09-21T11:03:31.233Z,19.10
2022-09-21T11:06:04.920Z,19.10
2022-09-21T11:08:50.739Z,19.20
2022-09-21T11:11:17.852Z,19.10
2022-09-21T11:13:48.251Z,19.10
2022-09-21T11:16:24.805Z,19.20
2022-09-21T11:18:54.852Z,19.30
2022-09-21T11:21:43.684Z,19.30
2022-09-21T11:24:20.427Z,19.20
2022-09-21T11:26:52.653Z,19.40
2022-09-21T11:32:17.556Z,19.50
2022-09-21T11:35:03.486Z,19.60
2022-09-21T11:37:39.779Z,19.80
2022-09-21T11:40:39.240Z,19.80
2022-09-21T11:43:15.645Z,20.00
2022-09-21T11:45:59.135Z,20.00
2022-09-21T11:48:38.244Z,20.00
2022-09-21T11:51:13.830Z,19.90
2022-09-21T11:53:43.948Z,19.90
2022-09-21T11:56:20.364Z,20.00
2022-09-21T11:58:53.114Z,20.30
2022-09-21T12:01:29.397Z,20.50
2022-09-21T12:03:59.348Z,20.60
2022-09-21T12:06:46.540Z,20.50
2022-09-21T12:09:32.395Z,20.50
2022-09-21T12:12:15.627Z,20.50
2022-09-21T12:14:55.349Z,20.70
2022-09-21T12:17:42.477Z,20.70
2022-09-21T12:20:17.378Z,20.60
2022-09-21T12:22:45.869Z,20.60
2022-09-21T12:25:17.219Z,20.60
2022-09-21T12:28:05.715Z,20.60
2022-09-21T12:30:33.971Z,20.70
2022-09-21T12:33:00.945Z,20.60
2022-09-21T12:35:31.116Z,20.40
2022-09-21T12:38:04.416Z,20.30
2022-09-21T12:40:53.255Z,20.30
2022-09-21T12:43:26.638Z,20.20
2022-09-21T12:45:57.255Z,20.20
2022-09-21T12:48:29.204Z,19.80
2022-09-21T12:50:58.951Z,19.70
2022-09-21T12:53:30.484Z,19.70
2022-09-21T12:56:10.275Z,19.70
2022-09-21T12:58:48.893Z,19.70
2022-09-21T13:01:23.368Z,19.60
2022-09-21T13:04:02.945Z,19.50
2022-09-21T13:06:41.470Z,19.60
2022-09-21T13:09:11.598Z,19.50
2022-09-21T13:11:50.122Z,19.20
2022-09-21T13:14:18.370Z,19.00
2022-09-21T13:16:53.233Z,18.90
2022-09-21T13:19:24.777Z,18.70
2022-09-21T13:22:13.657Z,18.70
2022-09-21T13:24:42.521Z,18.80
2022-09-21T13:27:09.816Z,19.00
2022-09-21T13:29:39.150Z,19.00
2022-09-21T13:32:12.290Z,18.90
2022-09-21T13:34:43.510Z,18.70
2022-09-21T13:37:14.219Z,18.50
2022-09-21T13:39:44.631Z,18.40
2022-09-21T13:42:40.806Z,18.30
2022-09-21T13:45:14.083Z,18.20
2022-09-21T13:47:47.936Z,17.90
2022-09-21T13:50:21.624Z,17.80
2022-09-21T13:52:52.266Z,17.70
2022-09-21T13:55:39.263Z,17.70
2022-09-21T13:58:21.495Z,17.70
2022-09-21T14:00:56.724Z,17.70
2022-09-21T14:03:37.755Z,17.80
2022-09-21T14:06:13.923Z,17.80
2022-09-21T14:08:49.485Z,17.80
2022-09-21T14:11:20.384Z,17.80
2022-09-21T14:14:07.731Z,17.90
2022-09-21T14:16:35.863Z,17.80
2022-09-21T14:19:18.076Z,17.80
2022-09-21T14:22:03.468Z,17.70
2022-09-21T14:24:38.226Z,17.70
2022-09-21T14:27:25.384Z,17.70
2022-09-21T14:29:54.037Z,17.50
2022-09-21T14:32:23.681Z,17.50
2022-09-21T14:34:51.966Z,17.40
2022-09-21T14:37:32.925Z,17.30
2022-09-21T14:40:05.974Z,17.20
2022-09-21T14:42:33.070Z,17.10
2022-09-21T14:45:03.773Z,17.10
2022-09-21T14:47:36.049Z,17.00
2022-09-21T14:50:07.487Z,16.90
2022-09-21T14:52:57.033Z,16.80
2022-09-21T14:55:30.251Z,16.80
2022-09-21T14:57:57.144Z,16.80
2022-09-21T15:00:26.593Z,16.80
2022-09-21T15:03:19.097Z,16.70
2022-09-21T15:06:29.036Z,16.70
2022-09-21T15:09:14.677Z,16.70
2022-09-21T15:11:44.591Z,16.70
2022-09-21T15:15:21.043Z,16.70
2022-09-21T15:17:59.802Z,16.60
2022-09-21T15:20:29.627Z,16.60
2022-09-21T15:23:01.370Z,16.60
2022-09-21T15:25:33.250Z,16.60
2022-09-21T15:28:00.831Z,16.60
2022-09-21T15:30:33.265Z,16.60
2022-09-21T15:33:02.140Z,16.60
2022-09-21T15:35:32.731Z,16.70
2022-09-21T15:38:01.476Z,16.70
2022-09-21T15:40:32.973Z,16.80
2022-09-21T15:43:19.661Z,16.80
2022-09-21T15:45:54.713Z,16.80
2022-09-21T15:48:23.602Z,16.80
2022-09-21T15:50:59.023Z,16.80
2022-09-21T15:53:31.194Z,16.80
2022-09-21T15:56:01.724Z,16.70
2022-09-21T15:58:38.744Z,16.80
2022-09-21T16:01:12.163Z,16.70
2022-09-21T16:03:40.209Z,16.70
2022-09-21T16:06:38.828Z,16.60
2022-09-21T16:09:43.019Z,16.60
2022-09-21T16:12:28.889Z,16.50
2022-09-21T16:15:04.128Z,16.50
2022-09-21T16:17:38.627Z,16.50
2022-09-21T16:20:14.799Z,16.50
2022-09-21T16:22:47.697Z,16.40
2022-09-21T16:25:16.134Z,16.40
2022-09-21T16:28:02.237Z,16.40
2022-09-21T16:30:44.938Z,16.40
2022-09-21T16:33:47.504Z,16.40
2022-09-21T16:36:17.298Z,16.40
2022-09-21T16:38:47.367Z,16.50
2022-09-21T16:41:17.696Z,16.50
2022-09-21T16:43:45.253Z,16.40
2022-09-21T16:46:13.707Z,16.40
2022-09-21T16:48:41.151Z,16.40
2022-09-21T16:51:15.960Z,16.40
2022-09-21T16:53:43.008Z,16.30
2022-09-21T16:56:14.315Z,16.30
2022-09-21T16:58:43.753Z,16.30
2022-09-21T17:01:18.334Z,16.30
2022-09-21T17:03:47.264Z,16.20
2022-09-21T17:06:19.691Z,16.20
2022-09-21T17:08:48.273Z,16.20
2022-09-21T17:11:20.269Z,16.10
2022-09-21T17:13:48.702Z,16.10
2022-09-21T17:16:18.313Z,16.10
2022-09-21T17:18:46.586Z,16.10
2022-09-21T17:21:14.723Z,16.10
2022-09-21T17:23:42.273Z,16.10
2022-09-21T17:26:17.761Z,16.00
2022-09-21T17:28:45.548Z,16.00
2022-09-21T17:31:16.515Z,15.90
2022-09-21T17:33:47.853Z,15.90
2022-09-21T17:36:16.105Z,15.90
2022-09-21T17:38:44.302Z,15.80
2022-09-21T17:41:39.762Z,15.80
2022-09-21T17:44:22.207Z,15.80
2022-09-21T17:46:55.316Z,15.70
2022-09-21T17:49:22.645Z,15.70
2022-09-21T17:52:22.158Z,15.60
2022-09-21T17:54:51.370Z,15.60
2022-09-21T17:57:27.357Z,15.50
2022-09-21T18:00:10.380Z,15.50
2022-09-21T18:02:37.565Z,15.40
2022-09-21T18:05:16.073Z,15.40
2022-09-21T18:07:43.358Z,15.40
2022-09-21T18:10:14.186Z,15.30
2022-09-21T18:13:16.093Z,15.20
2022-09-21T18:16:03.965Z,15.20
2022-09-21T18:18:59.351Z,15.20
2022-09-21T18:21:27.983Z,15.10
2022-09-21T18:24:14.946Z,15.10
2022-09-21T18:26:42.709Z,15.10
2022-09-21T18:29:38.984Z,15.00
2022-09-21T18:32:43.264Z,15.00
2022-09-21T18:35:28.457Z,14.90
2022-09-21T18:38:22.846Z,14.90
2022-09-21T18:41:23.206Z,14.80
2022-09-21T18:44:13.140Z,14.80
2022-09-21T18:47:05.873Z,14.80
2022-09-21T18:49:33.339Z,14.80
2022-09-21T18:52:09.597Z,14.80
2022-09-21T18:54:36.755Z,14.80
2022-09-21T18:57:13.031Z,14.80
2022-09-21T18:59:41.108Z,14.80
2022-09-21T19:02:17.701Z,14.80
2022-09-21T19:04:45.850Z,14.80
2022-09-21T19:07:18.667Z,14.80
2022-09-21T19:09:45.716Z,14.70
2022-09-21T19:12:15.764Z,14.70
2022-09-21T19:14:48.614Z,14.70
2022-09-21T19:17:56.374Z,14.60
2022-09-21T19:20:50.105Z,14.60
2022-09-21T19:24:03.381Z,14.70
2022-09-21T19:26:37.074Z,14.70
2022-09-21T19:29:19.046Z,14.70
2022-09-21T19:31:46.340Z,14.70
2022-09-21T19:34:18.605Z,14.60
2022-09-21T19:36:49.606Z,14.60
2022-09-21T19:39:17.280Z,14.50
2022-09-21T19:41:55.490Z,14.50
2022-09-21T19:44:51.528Z,14.50
2022-09-21T19:47:48.314Z,14.40
2022-09-21T19:50:21.723Z,14.40
2022-09-21T19:52:49.274Z,14.30
2022-09-21T19:55:37.758Z,14.30
2022-09-21T19:58:24.494Z,14.20
2022-09-21T20:00:55.845Z,14.20
2022-09-21T20:03:44.231Z,14.10
2022-09-21T20:06:37.148Z,14.20
2022-09-21T20:09:15.116Z,14.20
2022-09-21T20:11:56.472Z,14.20
2022-09-21T20:14:32.542Z,14.20
2022-09-21T20:17:02.234Z,14.20
2022-09-21T20:19:48.231Z,14.20
2022-09-21T20:22:17.864Z,14.20
2022-09-21T20:24:56.892Z,14.10
2022-09-21T20:27:47.109Z,14.10
2022-09-21T20:30:16.275Z,14.10
2022-09-21T20:32:48.953Z,14.10
2022-09-21T20:35:23.733Z,14.10
2022-09-21T20:37:56.481Z,14.10
2022-09-21T20:40:28.804Z,14.10
2022-09-21T20:42:57.499Z,14.10
2022-09-21T20:45:24.941Z,14.00
2022-09-21T20:47:53.608Z,14.10
2022-09-21T20:50:22.081Z,14.10
2022-09-21T20:52:49.165Z,14.10
2022-09-21T20:55:17.794Z,14.10
2022-09-21T20:57:45.027Z,14.10
2022-09-21T21:00:16.873Z,14.10
2022-09-21T21:02:44.121Z,14.10
2022-09-21T21:05:11.420Z,14.10
2022-09-21T21:07:41.216Z,14.10
2022-09-21T21:10:11.992Z,14.00
2022-09-21T21:12:42.157Z,14.00
2022-09-21T21:15:13.006Z,14.10
2022-09-21T21:17:41.091Z,14.10
2022-09-21T21:20:09.662Z,14.10
2022-09-21T21:22:37.061Z,14.10
2022-09-21T21:25:04.873Z,14.10
2022-09-21T21:27:32.121Z,14.10
2022-09-21T21:30:00.327Z,14.10
2022-09-21T21:32:28.594Z,14.10
2022-09-21T21:34:56.032Z,14.10
2022-09-21T21:37:25.483Z,14.10
2022-09-21T21:39:53.803Z,14.10
2022-09-21T21:42:21.902Z,14.10
2022-09-21T21:44:50.854Z,14.10
2022-09-21T21:47:38.610Z,14.10
2022-09-21T21:50:06.065Z,14.10
2022-09-21T21:52:33.072Z,14.10
2022-09-21T21:55:00.145Z,14.10
2022-09-21T21:57:27.142Z,14.00
2022-09-21T21:59:54.957Z,14.00
2022-09-21T22:02:22.092Z,14.00
2022-09-21T22:04:49.198Z,14.00
2022-09-21T22:07:16.269Z,14.00
2022-09-21T22:09:43.316Z,14.00
2022-09-21T22:12:12.044Z,14.00
2022-09-21T22:14:40.142Z,14.00
2022-09-21T22:17:07.187Z,14.00
2022-09-21T22:19:34.278Z,14.00
2022-09-21T22:22:01.424Z,14.00
2022-09-21T22:24:28.530Z,14.00
2022-09-21T22:26:55.938Z,14.00
2022-09-21T22:29:23.063Z,14.00
2022-09-21T22:31:50.821Z,14.00
2022-09-21T22:34:20.330Z,14.00
2022-09-21T22:36:47.398Z,14.00
2022-09-21T22:39:14.513Z,14.00
2022-09-21T22:41:42.595Z,14.00
2022-09-21T22:44:10.868Z,14.00
2022-09-21T22:46:39.274Z,14.00
2022-09-21T22:49:06.745Z,14.00
2022-09-21T22:51:34.484Z,14.10
2022-09-21T22:54:02.081Z,14.10
2022-09-21T22:56:31.367Z,14.10
2022-09-21T22:59:00.609Z,14.10
2022-09-21T23:01:30.572Z,14.10
2022-09-21T23:04:03.778Z,14.10
2022-09-21T23:06:33.620Z,14.10
2022-09-21T23:09:03.084Z,14.00
2022-09-21T23:11:33.544Z,14.10
2022-09-21T23:14:00.946Z,14.10
2022-09-21T23:16:29.332Z,14.10
2022-09-21T23:18:57.989Z,14.10
2022-09-21T23:21:28.417Z,14.10
2022-09-21T23:24:01.431Z,14.10
2022-09-21T23:26:30.641Z,14.20
2022-09-21T23:28:59.948Z,14.20
2022-09-21T23:31:28.689Z,14.20
2022-09-21T23:33:58.612Z,14.20
2022-09-21T23:36:28.563Z,14.20
2022-09-21T23:38:56.092Z,14.20
2022-09-21T23:41:31.871Z,14.20
2022-09-21T23:43:59.311Z,14.20
2022-09-21T23:46:29.841Z,14.20
2022-09-21T23:48:58.166Z,14.20
2022-09-21T23:51:25.917Z,14.20
2022-09-21T23:53:53.867Z,14.20
2022-09-21T23:56:22.863Z,14.20
2022-09-21T23:58:52.062Z,14.20
